Time;durP1;ratioP1;P1;durP2;ratioP2;P2;SDS_P1;SDS_P2;PMS_P1;PMS_P2;Temp;Humidity;BMP_temperature;BMP_pressure;BME280_temperature;BME280_humidity;BME280_pressure;Samples;Min_cycle;Max_cycle;Signal;HPM_P1;HPM_P2
2023/06/22 00:01:50;;;;;;;47.95;32.45;;;16.90;97.50;;;;;;5033373;28;20438;-61
2023/06/22 00:04:16;;;;;;;43.72;30.27;;;16.90;97.60;;;;;;5034651;28;20048;-61
2023/06/22 00:06:41;;;;;;;51.13;33.10;;;16.90;97.80;;;;;;5033171;28;20483;-61
2023/06/22 00:09:07;;;;;;;43.17;30.35;;;16.80;98.90;;;;;;5039803;28;20172;-62
2023/06/22 00:11:33;;;;;;;51.08;32.28;;;16.80;99.10;;;;;;5041525;28;20483;-60
2023/06/22 00:14:03;;;;;;;44.95;29.88;;;16.80;99.50;;;;;;5047316;28;20589;-61
2023/06/22 00:16:28;;;;;;;42.85;28.80;;;16.80;99.90;;;;;;5042115;28;20095;-61
2023/06/22 00:18:54;;;;;;;41.47;29.40;;;16.80;99.40;;;;;;5031337;28;20090;-61
2023/06/22 00:21:20;;;;;;;49.15;31.77;;;16.70;98.90;;;;;;5041124;28;20056;-61
2023/06/22 00:23:47;;;;;;;44.47;29.88;;;16.70;99.80;;;;;;5036806;28;20041;-60
2023/06/22 00:26:13;;;;;;;49.72;31.50;;;16.60;99.90;;;;;;5044165;28;20045;-62
2023/06/22 00:28:39;;;;;;;46.88;30.67;;;16.60;99.80;;;;;;5034215;28;20052;-61
2023/06/22 00:31:04;;;;;;;45.75;29.75;;;16.60;99.70;;;;;;5033703;28;20033;-62
2023/06/22 00:33:30;;;;;;;44.55;27.33;;;16.60;99.60;;;;;;5045152;28;20039;-61
2023/06/22 00:35:55;;;;;;;40.33;27.50;;;16.60;99.50;;;;;;5044800;28;20045;-61
2023/06/22 00:38:21;;;;;;;41.33;27.90;;;16.50;99.40;;;;;;5028139;28;20037;-60
2023/06/22 00:40:46;;;;;;;49.45;30.73;;;16.50;99.30;;;;;;5038299;28;20134;-61
2023/06/22 00:43:12;;;;;;;40.90;26.80;;;16.40;99.80;;;;;;5036829;28;20457;-61
2023/06/22 00:45:38;;;;;;;45.47;30.05;;;16.40;99.90;;;;;;5043297;28;20145;-61
2023/06/22 00:48:04;;;;;;;45.35;29.63;;;16.40;99.90;;;;;;5034512;28;20172;-61
2023/06/22 00:50:33;;;;;;;39.80;27.50;;;16.40;99.80;;;;;;5035928;28;20033;-61
2023/06/22 00:53:08;;;;;;;46.47;29.73;;;16.30;99.50;;;;;;5030200;28;20037;-62
2023/06/22 00:55:47;;;;;;;45.25;28.40;;;16.30;99.70;;;;;;5032929;28;20120;-61
2023/06/22 00:58:13;;;;;;;35.50;24.83;;;16.30;99.70;;;;;;5039741;28;20037;-61
2023/06/22 01:00:39;;;;;;;46.53;29.75;;;16.30;99.60;;;;;;5032927;28;20103;-61
2023/06/22 01:03:08;;;;;;;43.08;28.77;;;16.20;99.80;;;;;;5035271;28;20384;-61
2023/06/22 01:05:35;;;;;;;41.75;27.50;;;16.30;99.90;;;;;;5039423;28;20057;-61
2023/06/22 01:08:05;;;;;;;46.97;29.40;;;16.20;99.70;;;;;;5035216;28;20040;-62
2023/06/22 01:10:31;;;;;;;;;;;16.10;99.90;;;;;;5033510;28;20041;-60
2023/06/22 01:13:24;;;;;;;39.90;27.02;;;16.10;99.90;;;;;;5037237;28;19921;-60
2023/06/22 01:15:56;;;;;;;42.00;27.02;;;16.10;99.90;;;;;;5032136;28;20044;-61
2023/06/22 01:18:25;;;;;;;42.58;28.75;;;16.10;99.90;;;;;;5037010;28;20048;-61
2023/06/22 01:20:57;;;;;;;45.17;28.92;;;16.10;99.90;;;;;;5018553;28;20068;-61
2023/06/22 01:23:23;;;;;;;41.00;27.67;;;16.10;99.90;;;;;;5026973;28;20156;-60
2023/06/22 01:26:00;;;;;;;44.75;28.33;;;16.10;99.90;;;;;;5026081;28;20077;-63
2023/06/22 01:28:46;;;;;;;46.15;28.77;;;16.10;99.90;;;;;;5029666;28;20037;-61
2023/06/22 01:31:15;;;;;;;41.35;27.17;;;16.00;99.90;;;;;;5046322;28;20048;-61
2023/06/22 01:33:44;;;;;;;40.15;25.40;;;16.00;99.90;;;;;;5044310;28;20064;-60
2023/06/22 01:36:10;;;;;;;40.53;25.75;;;15.90;99.90;;;;;;5027937;28;20049;-61
2023/06/22 01:38:38;;;;;;;35.10;23.00;;;15.90;99.90;;;;;;5039652;28;20131;-61
2023/06/22 01:41:04;;;;;;;34.50;24.02;;;16.00;99.90;;;;;;5031710;28;20112;-61
2023/06/22 01:43:30;;;;;;;45.22;29.70;;;16.00;99.90;;;;;;5043733;28;20041;-60
2023/06/22 01:45:57;;;;;;;45.60;30.00;;;15.90;99.90;;;;;;5043436;28;20464;-60
2023/06/22 01:48:23;;;;;;;46.42;29.42;;;15.90;99.90;;;;;;5039198;28;20106;-62
2023/06/22 01:50:49;;;;;;;48.78;31.25;;;15.90;99.90;;;;;;5039049;28;20373;-61
2023/06/22 01:53:14;;;;;;;50.92;31.25;;;15.90;99.90;;;;;;5036413;28;20119;-61
2023/06/22 01:55:40;;;;;;;40.85;28.52;;;15.90;99.90;;;;;;5044999;28;20052;-62
2023/06/22 01:58:06;;;;;;;40.47;27.70;;;15.90;99.90;;;;;;5037939;28;20717;-61
2023/06/22 02:00:38;;;;;;;39.63;26.70;;;15.90;99.90;;;;;;5037907;28;20098;-62
2023/06/22 02:03:11;;;;;;;41.28;26.77;;;15.90;99.90;;;;;;5043442;28;20041;-61
2023/06/22 02:05:43;;;;;;;42.83;28.42;;;15.90;99.90;;;;;;5037593;28;20066;-61
2023/06/22 02:08:21;;;;;;;37.63;26.15;;;15.80;99.90;;;;;;5037700;28;20033;-62
2023/06/22 02:10:48;;;;;;;48.17;29.83;;;15.80;99.90;;;;;;5039381;28;20125;-61
2023/06/22 02:13:14;;;;;;;47.85;29.10;;;15.70;99.90;;;;;;5035370;28;20405;-62
2023/06/22 02:15:40;;;;;;;47.08;29.77;;;15.70;99.90;;;;;;5030731;28;20522;-61
2023/06/22 02:18:06;;;;;;;43.97;31.08;;;15.60;99.90;;;;;;5043083;28;20045;-61
2023/06/22 02:20:31;;;;;;;47.92;30.88;;;15.60;99.90;;;;;;5032677;28;20149;-62
2023/06/22 02:22:57;;;;;;;49.88;30.27;;;15.60;99.90;;;;;;5033647;28;20473;-61
2023/06/22 02:25:22;;;;;;;45.00;29.80;;;15.60;99.90;;;;;;5042327;28;20149;-61
2023/06/22 02:27:48;;;;;;;41.50;26.70;;;15.60;99.90;;;;;;5060603;28;20037;-60
2023/06/22 02:30:15;;;;;;;42.30;26.20;;;15.60;99.90;;;;;;5035962;28;20556;-61
2023/06/22 02:32:42;;;;;;;36.65;25.80;;;15.50;99.90;;;;;;5033870;28;20520;-62
2023/06/22 02:35:09;;;;;;;39.67;26.95;;;15.40;99.90;;;;;;5036465;28;20052;-61
2023/06/22 02:37:41;;;;;;;41.72;27.83;;;15.30;99.90;;;;;;5046451;28;20049;-60
2023/06/22 02:40:08;;;;;;;40.33;26.08;;;15.30;99.90;;;;;;5044224;28;20049;-61
2023/06/22 02:42:35;;;;;;;39.38;25.92;;;15.30;99.90;;;;;;5033393;28;20083;-61
2023/06/22 02:45:01;;;;;;;43.30;28.67;;;15.30;99.90;;;;;;5043679;28;20102;-60
2023/06/22 02:47:26;;;;;;;41.33;26.75;;;15.30;99.90;;;;;;5038072;28;20057;-61
2023/06/22 02:49:52;;;;;;;40.83;27.13;;;15.30;99.90;;;;;;5038165;28;20059;-61
2023/06/22 02:52:18;;;;;;;40.63;27.33;;;15.30;99.90;;;;;;5034767;28;20052;-60
2023/06/22 02:54:45;;;;;;;41.85;28.08;;;15.30;99.90;;;;;;5040979;28;20111;-61
2023/06/22 02:57:13;;;;;;;39.65;27.38;;;15.20;99.90;;;;;;5045106;28;20099;-61
2023/06/22 02:59:40;;;;;;;37.22;26.55;;;15.20;99.90;;;;;;5045034;28;20036;-61
2023/06/22 03:02:06;;;;;;;39.78;25.45;;;15.20;99.90;;;;;;5032475;28;20373;-61
2023/06/22 03:04:32;;;;;;;30.83;21.80;;;15.20;99.90;;;;;;5037576;28;20058;-62
2023/06/22 03:07:00;;;;;;;31.60;21.00;;;15.20;99.90;;;;;;5036726;28;20045;-61
2023/06/22 03:09:27;;;;;;;39.80;26.17;;;15.00;99.90;;;;;;5039603;28;20426;-61
2023/06/22 03:11:53;;;;;;;35.63;24.88;;;15.00;99.90;;;;;;5033030;28;20033;-61
2023/06/22 03:14:19;;;;;;;32.33;24.30;;;15.00;99.90;;;;;;5035346;28;20112;-61
2023/06/22 03:16:44;;;;;;;35.15;25.63;;;15.00;99.90;;;;;;5035068;28;20079;-62
2023/06/22 03:19:10;;;;;;;36.78;25.88;;;15.00;99.90;;;;;;5037616;28;20093;-61
2023/06/22 03:21:38;;;;;;;44.67;29.27;;;15.00;99.90;;;;;;5045310;28;20040;-61
2023/06/22 03:24:05;;;;;;;42.42;29.02;;;15.00;99.90;;;;;;5045472;28;20037;-61
2023/06/22 03:26:30;;;;;;;40.50;27.92;;;15.00;99.90;;;;;;5046002;28;20462;-61
2023/06/22 03:28:56;;;;;;;43.08;28.83;;;15.00;99.90;;;;;;5045438;28;20158;-61
2023/06/22 03:31:22;;;;;;;41.88;28.85;;;14.90;99.90;;;;;;5039122;28;20068;-62
2023/06/22 03:33:49;;;;;;;43.67;26.80;;;14.90;99.90;;;;;;5041020;28;20069;-61
2023/06/22 03:36:18;;;;;;;39.58;27.60;;;15.00;99.90;;;;;;5042292;28;20053;-62
2023/06/22 03:38:45;;;;;;;39.47;27.60;;;15.00;99.90;;;;;;5038216;28;20124;-61
2023/06/22 03:41:10;;;;;;;38.03;27.23;;;15.00;99.90;;;;;;5029072;28;20378;-61
2023/06/22 03:43:36;;;;;;;37.67;27.73;;;15.10;99.90;;;;;;5029705;28;20199;-62
2023/06/22 03:46:01;;;;;;;36.17;25.70;;;15.10;99.90;;;;;;5043782;28;20194;-61
2023/06/22 03:48:27;;;;;;;29.73;24.70;;;15.10;99.90;;;;;;5035103;28;20083;-61
2023/06/22 03:50:52;;;;;;;30.23;25.35;;;15.20;99.90;;;;;;5037542;28;20040;-61
2023/06/22 03:53:18;;;;;;;36.03;25.45;;;15.20;99.90;;;;;;5040407;28;20044;-61
2023/06/22 03:55:51;;;;;;;32.65;24.42;;;15.20;99.90;;;;;;5045267;28;20042;-62
2023/06/22 03:58:18;;;;;;;32.20;25.50;;;15.20;99.90;;;;;;5036381;28;20461;-61
2023/06/22 04:00:45;;;;;;;29.30;23.92;;;15.20;99.90;;;;;;5039188;28;20453;-63
2023/06/22 04:03:11;;;;;;;30.75;24.40;;;15.30;99.90;;;;;;5040532;28;20372;-61
2023/06/22 04:05:38;;;;;;;31.75;22.48;;;15.30;99.90;;;;;;5045107;28;20052;-61
2023/06/22 04:08:04;;;;;;;39.22;24.50;;;15.40;99.90;;;;;;5040349;28;20049;-62
2023/06/22 04:10:30;;;;;;;34.00;24.70;;;15.40;99.90;;;;;;5041454;28;20034;-61
2023/06/22 04:12:56;;;;;;;28.42;24.10;;;15.30;99.90;;;;;;5045983;28;20358;-61
2023/06/22 04:15:22;;;;;;;31.35;23.70;;;15.30;99.90;;;;;;5046911;28;20041;-62
2023/06/22 04:17:47;;;;;;;33.50;25.85;;;15.30;99.90;;;;;;5045417;28;20038;-61
2023/06/22 04:20:13;;;;;;;33.45;25.67;;;15.30;99.90;;;;;;5038881;28;20029;-62
2023/06/22 04:22:38;;;;;;;32.83;25.27;;;15.30;99.90;;;;;;5042223;28;20082;-61
2023/06/22 04:25:07;;;;;;;35.50;26.10;;;15.30;99.90;;;;;;5041512;28;20059;-61
2023/06/22 04:27:37;;;;;;;33.17;25.80;;;15.30;99.90;;;;;;5029507;28;20063;-66
2023/06/22 04:30:03;;;;;;;33.00;25.35;;;15.30;99.90;;;;;;5042837;28;20126;-61
2023/06/22 04:32:29;;;;;;;29.42;23.65;;;15.40;99.90;;;;;;5037636;28;20057;-61
2023/06/22 04:34:55;;;;;;;29.67;23.63;;;15.40;99.90;;;;;;5043287;28;20039;-61
2023/06/22 04:37:23;;;;;;;28.95;23.65;;;15.50;99.90;;;;;;5041762;28;20036;-61
2023/06/22 04:39:49;;;;;;;31.85;23.13;;;15.50;99.90;;;;;;5041626;28;20045;-61
2023/06/22 04:42:14;;;;;;;30.58;24.13;;;15.50;99.90;;;;;;5039820;28;20037;-61
2023/06/22 04:44:41;;;;;;;27.00;22.58;;;15.60;99.90;;;;;;5047385;28;20072;-62
2023/06/22 04:47:08;;;;;;;31.88;24.02;;;15.60;99.90;;;;;;5044411;28;20040;-61
2023/06/22 04:49:37;;;;;;;30.17;23.42;;;15.60;99.90;;;;;;5044636;28;20136;-62
2023/06/22 04:52:05;;;;;;;33.53;25.63;;;15.60;99.90;;;;;;5040658;28;20078;-61
2023/06/22 04:54:34;;;;;;;33.63;24.95;;;15.60;99.90;;;;;;5040351;28;20349;-61
2023/06/22 04:57:05;;;;;;;36.55;26.90;;;15.60;99.90;;;;;;5039615;28;20057;-62
2023/06/22 04:59:31;;;;;;;36.17;27.30;;;15.70;99.90;;;;;;5040367;28;20166;-61
2023/06/22 05:02:02;;;;;;;36.65;27.35;;;15.80;99.90;;;;;;5034619;28;20075;-62
2023/06/22 05:04:31;;;;;;;34.90;25.77;;;15.80;99.90;;;;;;5046485;28;20060;-62
2023/06/22 05:06:57;;;;;;;35.40;25.42;;;16.00;99.90;;;;;;5034456;28;20140;-62
2023/06/22 05:09:23;;;;;;;33.88;25.75;;;16.10;99.90;;;;;;5031816;28;20045;-62
2023/06/22 05:11:49;;;;;;;35.03;25.27;;;16.20;99.90;;;;;;5031315;28;20035;-61
2023/06/22 05:14:14;;;;;;;37.92;26.05;;;16.40;99.90;;;;;;5030863;28;23095;-61
2023/06/22 05:16:42;;;;;;;35.50;26.85;;;16.50;99.90;;;;;;5033212;28;20033;-62
2023/06/22 05:19:08;;;;;;;36.28;26.77;;;16.70;99.90;;;;;;5041908;28;20646;-62
2023/06/22 05:21:33;;;;;;;37.47;26.35;;;16.80;99.90;;;;;;5047354;28;20052;-63
2023/06/22 05:24:02;;;;;;;41.53;29.95;;;16.90;99.90;;;;;;5044976;28;20405;-62
2023/06/22 05:26:30;;;;;;;42.70;30.17;;;17.10;99.90;;;;;;5044402;28;20033;-62
2023/06/22 05:28:56;;;;;;;48.58;32.85;;;17.30;99.90;;;;;;5039145;28;20086;-62
2023/06/22 05:31:22;;;;;;;44.83;30.35;;;17.40;99.90;;;;;;5044456;28;20048;-62
2023/06/22 05:33:50;;;;;;;42.33;30.50;;;17.60;99.90;;;;;;5046509;28;20124;-62
2023/06/22 05:36:16;;;;;;;47.00;30.52;;;17.70;99.90;;;;;;5041331;28;20094;-63
2023/06/22 05:38:41;;;;;;;42.95;28.15;;;17.90;99.90;;;;;;5025707;28;20139;-62
2023/06/22 05:41:08;;;;;;;39.42;27.70;;;18.10;99.90;;;;;;5029104;28;20053;-62
2023/06/22 05:43:33;;;;;;;39.63;28.95;;;18.10;99.90;;;;;;5027286;28;20041;-63
2023/06/22 05:46:01;;;;;;;40.05;27.17;;;18.20;99.90;;;;;;5033179;28;20052;-63
2023/06/22 05:48:27;;;;;;;44.65;29.67;;;18.40;99.90;;;;;;5046363;28;20096;-62
2023/06/22 05:50:53;;;;;;;43.90;29.08;;;18.60;99.90;;;;;;5044437;28;20049;-62
2023/06/22 05:53:19;;;;;;;34.47;24.40;;;18.70;99.90;;;;;;5031177;28;20040;-63
2023/06/22 05:55:44;;;;;;;35.95;26.27;;;18.90;99.90;;;;;;5024633;28;20890;-62
2023/06/22 05:58:10;;;;;;;38.45;27.52;;;19.20;99.30;;;;;;5038417;28;20106;-63
2023/06/22 06:00:36;;;;;;;36.30;26.63;;;19.30;99.00;;;;;;5031829;28;20052;-63
2023/06/22 06:03:03;;;;;;;32.47;23.50;;;19.50;98.40;;;;;;5028528;28;20144;-63
2023/06/22 06:05:29;;;;;;;36.08;26.85;;;19.70;97.70;;;;;;5048245;28;20029;-62
2023/06/22 06:07:55;;;;;;;34.92;26.00;;;19.90;97.20;;;;;;5040685;28;20075;-63
2023/06/22 06:10:21;;;;;;;31.23;23.05;;;19.90;96.60;;;;;;5043158;28;20065;-63
2023/06/22 06:12:46;;;;;;;28.42;20.88;;;20.00;95.50;;;;;;5033610;28;20088;-62
2023/06/22 06:15:12;;;;;;;29.15;20.98;;;20.00;94.70;;;;;;5044945;28;20147;-63
2023/06/22 06:17:46;;;;;;;31.05;21.55;;;20.20;94.20;;;;;;5040651;28;20086;-63
2023/06/22 06:20:12;;;;;;;25.55;19.60;;;20.20;92.60;;;;;;5034011;28;20071;-62
2023/06/22 06:22:37;;;;;;;25.05;19.08;;;20.40;92.50;;;;;;5028347;28;20045;-62
2023/06/22 06:25:04;;;;;;;22.70;18.13;;;20.50;91.70;;;;;;5036530;28;20037;-62
2023/06/22 06:27:30;;;;;;;25.13;18.00;;;20.60;90.90;;;;;;5033938;28;20025;-63
2023/06/22 06:29:55;;;;;;;21.92;17.17;;;20.80;90.20;;;;;;5036635;28;20128;-63
2023/06/22 06:32:21;;;;;;;20.73;16.20;;;20.80;88.90;;;;;;5027897;28;20037;-62
2023/06/22 06:34:47;;;;;;;20.48;14.30;;;20.90;88.00;;;;;;5035273;28;20132;-63
2023/06/22 06:37:12;;;;;;;20.17;16.15;;;21.10;86.90;;;;;;5040319;28;20040;-62
2023/06/22 06:39:38;;;;;;;17.58;14.50;;;21.10;84.80;;;;;;5040264;28;20064;-62
2023/06/22 06:42:05;;;;;;;17.58;14.05;;;21.30;83.50;;;;;;5036946;28;20056;-62
2023/06/22 06:44:30;;;;;;;19.10;13.18;;;21.50;82.20;;;;;;5037765;28;20948;-63
2023/06/22 06:46:56;;;;;;;17.00;11.95;;;21.60;81.20;;;;;;5042564;28;20076;-64
2023/06/22 06:49:22;;;;;;;17.42;12.13;;;21.80;80.10;;;;;;5031718;28;20057;-62
2023/06/22 06:51:48;;;;;;;16.60;11.65;;;22.00;79.00;;;;;;5036361;28;20047;-62
2023/06/22 06:54:13;;;;;;;15.23;12.45;;;22.10;78.00;;;;;;5032294;28;20037;-62
2023/06/22 06:56:39;;;;;;;12.40;9.95;;;22.10;76.60;;;;;;5016399;28;20037;-62
2023/06/22 06:59:04;;;;;;;18.55;12.20;;;22.20;75.80;;;;;;5041275;28;20083;-62
2023/06/22 07:01:33;;;;;;;14.55;10.80;;;22.20;74.80;;;;;;5041224;28;20052;-63
2023/06/22 07:04:00;;;;;;;16.02;12.32;;;22.30;74.50;;;;;;5047573;28;20048;-64
2023/06/22 07:06:28;;;;;;;14.15;11.10;;;22.40;73.90;;;;;;5042724;28;20449;-62
2023/06/22 07:08:55;;;;;;;11.60;9.43;;;22.50;73.00;;;;;;5039627;28;20045;-62
2023/06/22 07:11:21;;;;;;;12.70;9.25;;;22.70;72.40;;;;;;5036630;28;20037;-62
2023/06/22 07:13:46;;;;;;;14.35;11.73;;;22.90;72.00;;;;;;5035284;28;20038;-62
2023/06/22 07:16:12;;;;;;;12.60;9.52;;;23.00;71.40;;;;;;5047066;28;20138;-63
2023/06/22 07:18:39;;;;;;;12.93;10.25;;;23.30;70.10;;;;;;5048124;28;20554;-63
2023/06/22 07:21:06;;;;;;;12.30;8.82;;;23.30;68.90;;;;;;5043363;28;20053;-63
2023/06/22 07:23:32;;;;;;;12.43;9.00;;;23.50;68.50;;;;;;5034819;28;20414;-63
2023/06/22 07:26:01;;;;;;;12.13;9.25;;;23.60;68.20;;;;;;5044479;28;20138;-63
2023/06/22 07:28:27;;;;;;;12.32;9.75;;;23.60;67.50;;;;;;5031090;28;20037;-62
2023/06/22 07:30:52;;;;;;;11.75;9.38;;;23.90;67.10;;;;;;5034181;28;20098;-63
2023/06/22 07:33:18;;;;;;;10.73;7.82;;;23.90;66.70;;;;;;5047475;28;20052;-62
2023/06/22 07:35:44;;;;;;;10.88;8.63;;;24.20;66.50;;;;;;5038009;28;20037;-62
2023/06/22 07:38:10;;;;;;;10.65;8.93;;;24.40;66.00;;;;;;5039136;28;20190;-63
2023/06/22 07:40:35;;;;;;;9.25;7.65;;;24.50;65.40;;;;;;5042965;28;20068;-63
2023/06/22 07:43:03;;;;;;;11.48;9.20;;;24.60;64.80;;;;;;5040064;28;20037;-63
2023/06/22 07:45:29;;;;;;;12.20;7.43;;;24.60;63.80;;;;;;5033803;28;20044;-62
2023/06/22 07:47:54;;;;;;;7.88;6.30;;;24.50;62.80;;;;;;5044537;28;20167;-63
2023/06/22 07:50:20;;;;;;;10.82;7.95;;;24.50;62.70;;;;;;5035165;28;20429;-62
2023/06/22 07:52:47;;;;;;;9.00;7.05;;;24.70;62.50;;;;;;5037966;28;20033;-64
2023/06/22 07:55:13;;;;;;;8.50;6.60;;;25.10;62.20;;;;;;5037106;28;20119;-63
2023/06/22 07:57:39;;;;;;;10.02;7.15;;;25.30;61.80;;;;;;5028507;28;20433;-63
2023/06/22 08:00:15;;;;;;;8.80;7.30;;;25.60;61.10;;;;;;5023659;28;20434;-64
2023/06/22 08:02:42;;;;;;;8.75;6.90;;;25.90;59.80;;;;;;5037007;28;20126;-64
2023/06/22 08:05:09;;;;;;;6.28;4.82;;;26.20;59.50;;;;;;5032532;28;20044;-63
2023/06/22 08:07:37;;;;;;;6.35;5.15;;;26.40;59.10;;;;;;5036055;28;20060;-62
2023/06/22 08:10:03;;;;;;;10.52;6.47;;;26.40;58.50;;;;;;5031705;28;20118;-64
2023/06/22 08:12:29;;;;;;;8.68;6.97;;;26.70;57.40;;;;;;5031170;28;20037;-64
2023/06/22 08:14:56;;;;;;;9.27;6.50;;;26.90;55.50;;;;;;5031135;28;20056;-62
2023/06/22 08:17:22;;;;;;;7.80;6.20;;;26.80;55.00;;;;;;5029608;28;20367;-63
2023/06/22 08:19:48;;;;;;;8.00;6.25;;;26.70;54.60;;;;;;5028076;28;20041;-63
2023/06/22 08:22:14;;;;;;;11.68;7.43;;;26.90;54.40;;;;;;5036007;28;20389;-63
2023/06/22 08:24:39;;;;;;;8.93;6.35;;;27.20;53.60;;;;;;5035100;28;20102;-65
2023/06/22 08:27:08;;;;;;;10.15;6.75;;;27.50;53.60;;;;;;5029839;28;20164;-63
2023/06/22 08:29:34;;;;;;;8.95;6.45;;;27.70;51.30;;;;;;5036217;28;20056;-64
2023/06/22 08:31:59;;;;;;;7.05;5.32;;;27.80;51.40;;;;;;5041727;28;20451;-64
2023/06/22 08:34:27;;;;;;;10.05;4.97;;;28.20;51.40;;;;;;5044919;28;20426;-64
2023/06/22 08:36:53;;;;;;;8.93;7.03;;;28.60;51.00;;;;;;5031314;28;21060;-63
2023/06/22 08:39:22;;;;;;;8.85;5.60;;;28.90;49.80;;;;;;5039512;28;20055;-63
2023/06/22 08:41:48;;;;;;;8.98;6.07;;;29.00;48.40;;;;;;5035802;28;20186;-63
2023/06/22 08:44:13;;;;;;;9.32;6.80;;;29.40;48.20;;;;;;5046149;28;20120;-64
2023/06/22 08:46:40;;;;;;;6.40;5.30;;;29.30;47.50;;;;;;5044726;28;20208;-64
2023/06/22 08:49:06;;;;;;;7.07;5.63;;;29.50;47.20;;;;;;5030443;28;20077;-65
2023/06/22 08:51:32;;;;;;;9.65;6.43;;;29.70;46.60;;;;;;5041613;28;20043;-63
2023/06/22 08:53:57;;;;;;;8.05;5.95;;;29.80;46.10;;;;;;5045471;28;20384;-65
2023/06/22 08:56:23;;;;;;;9.05;6.95;;;30.20;45.60;;;;;;5044998;28;20092;-62
2023/06/22 08:58:48;;;;;;;8.68;6.70;;;30.20;44.00;;;;;;5044273;28;20063;-64
2023/06/22 09:01:16;;;;;;;9.50;7.30;;;30.10;43.50;;;;;;5046640;28;20132;-64
2023/06/22 09:03:42;;;;;;;7.70;6.38;;;30.10;43.20;;;;;;5048457;28;20064;-62
2023/06/22 09:06:09;;;;;;;8.40;6.20;;;29.80;43.10;;;;;;5044580;28;20615;-63
2023/06/22 09:08:36;;;;;;;10.98;7.38;;;29.70;43.10;;;;;;5043201;28;20041;-63
2023/06/22 09:11:01;;;;;;;5.35;3.97;;;30.00;43.10;;;;;;5041294;28;20132;-65
2023/06/22 09:13:30;;;;;;;7.03;5.53;;;30.40;43.20;;;;;;5040022;28;20167;-66
2023/06/22 09:15:55;;;;;;;6.68;3.80;;;31.10;42.70;;;;;;5039976;28;20135;-65
2023/06/22 09:18:21;;;;;;;6.68;4.18;;;31.40;41.90;;;;;;5039974;28;20123;-63
2023/06/22 09:20:46;;;;;;;7.82;6.10;;;32.10;41.10;;;;;;5041792;28;20032;-63
2023/06/22 09:23:12;;;;;;;7.63;6.82;;;32.30;40.40;;;;;;5042088;28;20049;-65
2023/06/22 09:25:37;;;;;;;7.85;6.20;;;32.10;39.60;;;;;;5042650;28;20052;-63
2023/06/22 09:28:03;;;;;;;11.10;6.82;;;32.40;39.10;;;;;;5047178;28;20128;-63
2023/06/22 09:30:29;;;;;;;8.75;5.10;;;32.10;38.70;;;;;;5044824;28;20095;-65
2023/06/22 09:32:54;;;;;;;6.60;5.63;;;32.10;39.00;;;;;;5047893;28;20032;-63
2023/06/22 09:35:20;;;;;;;6.43;4.95;;;32.50;38.50;;;;;;5037542;28;20059;-64
2023/06/22 09:37:45;;;;;;;7.68;6.75;;;32.70;38.40;;;;;;5045082;28;20116;-64
2023/06/22 09:40:12;;;;;;;10.07;7.20;;;32.50;38.00;;;;;;5034973;28;20045;-64
2023/06/22 09:42:39;;;;;;;8.95;6.57;;;32.70;37.60;;;;;;5042547;28;20049;-64
2023/06/22 09:45:05;;;;;;;8.40;7.32;;;32.40;37.80;;;;;;5041989;28;20102;-63
2023/06/22 09:47:31;;;;;;;10.27;6.65;;;32.30;37.50;;;;;;5045473;28;20160;-66
2023/06/22 09:49:58;;;;;;;7.93;6.15;;;32.70;37.20;;;;;;5038385;28;20551;-65
2023/06/22 09:52:24;;;;;;;8.77;6.78;;;33.10;37.00;;;;;;5038883;28;20381;-62
2023/06/22 09:54:50;;;;;;;9.40;7.35;;;33.20;36.60;;;;;;5042187;28;20029;-67
2023/06/22 09:57:15;;;;;;;9.65;6.28;;;33.30;36.10;;;;;;5040293;28;20065;-65
2023/06/22 09:59:42;;;;;;;9.75;7.75;;;33.70;36.00;;;;;;5037979;28;20040;-63
2023/06/22 10:02:08;;;;;;;12.13;7.50;;;33.80;35.10;;;;;;5035875;28;20413;-64
2023/06/22 10:04:34;;;;;;;12.07;8.32;;;34.00;34.80;;;;;;5037837;28;20134;-64
2023/06/22 10:07:01;;;;;;;9.80;7.75;;;33.80;34.60;;;;;;5043114;28;20637;-63
2023/06/22 10:09:26;;;;;;;8.10;5.30;;;33.70;34.60;;;;;;5041083;28;20037;-63
2023/06/22 10:11:52;;;;;;;8.23;7.10;;;33.40;35.20;;;;;;5050346;28;20424;-64
2023/06/22 10:14:17;;;;;;;8.10;6.15;;;33.50;34.80;;;;;;5043831;28;20037;-64
2023/06/22 10:16:43;;;;;;;11.95;8.30;;;34.00;34.50;;;;;;5049363;28;20064;-63
2023/06/22 10:19:09;;;;;;;8.05;5.18;;;34.30;33.80;;;;;;5049295;28;20033;-64
2023/06/22 10:21:34;;;;;;;7.32;5.95;;;34.80;33.40;;;;;;5046173;28;20064;-65
2023/06/22 10:24:05;;;;;;;11.90;7.68;;;33.80;33.90;;;;;;5044965;28;20071;-63
2023/06/22 10:26:32;;;;;;;9.32;7.53;;;33.60;34.20;;;;;;5050863;28;20129;-68
2023/06/22 10:28:58;;;;;;;9.05;5.40;;;33.80;33.80;;;;;;5039503;28;20132;-62
2023/06/22 10:31:23;;;;;;;8.85;7.00;;;33.70;34.20;;;;;;5048152;28;20033;-65
2023/06/22 10:33:49;;;;;;;6.10;5.50;;;33.70;33.80;;;;;;5046910;28;20064;-64
2023/06/22 10:36:15;;;;;;;7.05;5.55;;;34.40;33.20;;;;;;5049916;28;20080;-65
2023/06/22 10:38:40;;;;;;;7.28;6.03;;;34.60;33.90;;;;;;5048326;28;20068;-63
2023/06/22 10:41:06;;;;;;;7.43;5.70;;;34.50;33.00;;;;;;5047266;28;20474;-64
2023/06/22 10:43:32;;;;;;;9.05;4.80;;;34.60;33.00;;;;;;5045834;28;20700;-64
2023/06/22 10:45:58;;;;;;;9.93;6.93;;;35.20;32.50;;;;;;5047223;28;20124;-63
2023/06/22 10:48:23;;;;;;;5.88;5.03;;;34.60;32.30;;;;;;5044419;28;20113;-65
2023/06/22 10:50:49;;;;;;;7.65;6.40;;;34.40;32.70;;;;;;5050677;28;20173;-65
2023/06/22 10:53:14;;;;;;;8.05;6.20;;;34.80;32.20;;;;;;5045467;28;20060;-63
2023/06/22 10:55:40;;;;;;;8.98;6.93;;;34.90;32.20;;;;;;5044138;28;20037;-63
2023/06/22 10:58:05;;;;;;;7.97;6.45;;;34.40;32.30;;;;;;5044573;28;20040;-65
2023/06/22 11:00:31;;;;;;;8.15;6.60;;;34.10;32.60;;;;;;5040802;28;20040;-63
2023/06/22 11:02:58;;;;;;;6.38;5.07;;;33.00;34.00;;;;;;5048125;28;20447;-66
2023/06/22 11:05:23;;;;;;;7.65;5.90;;;32.60;34.70;;;;;;5050407;28;20060;-63
2023/06/22 11:07:49;;;;;;;8.82;6.18;;;31.80;35.70;;;;;;5047729;28;20041;-64
2023/06/22 11:10:15;;;;;;;6.32;4.78;;;31.50;36.40;;;;;;5050263;28;20432;-64
2023/06/22 11:12:42;;;;;;;7.93;7.10;;;31.50;37.00;;;;;;5050455;28;20040;-62
2023/06/22 11:15:08;;;;;;;10.35;7.22;;;31.30;36.60;;;;;;5047584;28;20055;-63
2023/06/22 11:17:34;;;;;;;6.57;5.47;;;31.10;36.60;;;;;;5045711;28;20056;-65
2023/06/22 11:20:00;;;;;;;9.77;6.45;;;30.90;37.70;;;;;;5037000;28;20036;-63
2023/06/22 11:22:26;;;;;;;8.73;6.43;;;31.00;38.00;;;;;;5043473;28;20122;-64
2023/06/22 11:24:51;;;;;;;8.35;5.93;;;30.80;37.90;;;;;;5045008;28;20518;-64
2023/06/22 11:27:17;;;;;;;6.95;5.00;;;30.60;38.20;;;;;;5049991;28;20056;-62
2023/06/22 11:29:42;;;;;;;7.30;5.20;;;30.30;38.60;;;;;;5050825;28;20037;-63
2023/06/22 11:32:08;;;;;;;8.10;5.85;;;30.30;38.80;;;;;;5042958;28;20445;-63
2023/06/22 11:34:34;;;;;;;7.60;4.88;;;30.40;38.80;;;;;;5044966;28;20322;-63
2023/06/22 11:37:00;;;;;;;7.82;5.07;;;30.30;38.80;;;;;;5043884;28;20037;-63
2023/06/22 11:39:25;;;;;;;6.63;4.40;;;30.20;38.80;;;;;;5046862;28;20041;-64
2023/06/22 11:41:51;;;;;;;8.18;5.03;;;30.30;39.20;;;;;;5033381;28;20500;-62
2023/06/22 11:44:16;;;;;;;6.78;5.43;;;30.30;39.10;;;;;;5043297;28;20064;-63
2023/06/22 11:46:42;;;;;;;7.18;5.70;;;29.80;38.70;;;;;;5046956;28;22454;-63
2023/06/22 11:49:08;;;;;;;8.40;6.38;;;29.40;38.90;;;;;;5041296;28;20114;-64
2023/06/22 11:51:33;;;;;;;7.90;4.75;;;29.00;39.50;;;;;;5036705;28;20063;-64
2023/06/22 11:53:59;;;;;;;8.07;6.10;;;29.10;40.00;;;;;;5048772;28;20571;-62
2023/06/22 11:56:25;;;;;;;7.80;6.10;;;29.30;39.90;;;;;;5044599;28;20048;-62
2023/06/22 11:58:50;;;;;;;6.20;3.75;;;29.30;40.20;;;;;;5050694;28;20111;-63
2023/06/22 12:01:16;;;;;;;6.90;5.35;;;29.30;40.70;;;;;;5047317;28;20037;-64
2023/06/22 12:03:43;;;;;;;7.38;4.93;;;29.30;41.00;;;;;;5048344;28;20495;-63
2023/06/22 12:06:09;;;;;;;7.78;5.07;;;29.30;40.70;;;;;;5048674;28;20056;-63
2023/06/22 12:08:35;;;;;;;6.05;4.72;;;29.30;40.30;;;;;;5044851;28;20074;-63
2023/06/22 12:11:00;;;;;;;6.72;4.65;;;29.20;40.50;;;;;;5044180;28;20115;-64
2023/06/22 12:13:26;;;;;;;6.07;5.00;;;29.30;40.40;;;;;;5048563;28;20361;-63
2023/06/22 12:15:52;;;;;;;9.88;6.50;;;29.40;40.50;;;;;;5049085;28;20426;-64
2023/06/22 12:18:20;;;;;;;7.38;5.63;;;29.40;41.00;;;;;;5047461;28;20044;-63
2023/06/22 12:20:46;;;;;;;7.30;5.70;;;29.10;41.30;;;;;;5045598;28;20057;-64
2023/06/22 12:23:11;;;;;;;6.05;4.68;;;29.00;41.40;;;;;;5035874;28;20601;-64
2023/06/22 12:25:37;;;;;;;6.00;5.05;;;28.80;41.80;;;;;;5047944;28;20434;-62
2023/06/22 12:28:04;;;;;;;6.20;4.85;;;28.70;42.00;;;;;;5050229;28;20059;-63
2023/06/22 12:30:30;;;;;;;6.90;4.82;;;28.40;42.20;;;;;;5047475;28;20044;-63
2023/06/22 12:32:56;;;;;;;6.28;4.85;;;28.50;42.60;;;;;;5047765;28;20124;-63